Skip Navigation LinksHome page > Weather > Current weather Skip Navigation Links

Current Weather

Ronald Reagan Washington National, Washington

For information only: do not use for flight planning or navigation.
Latest weather
Observation time Thursday, October 17, 2019 12:52 AM EDT
Local time Thursday, October 17, 2019 1:57 AM EDT
Flight conditions Visual Meteorological Conditions
Winds
Wind direction West (280°)
Wind speed 9 mph
Visibility 10 mi.
Sky condition
Ceiling unlimited
Cloud layer few clouds 5,000 ft.
Temperature 52°F
Dewpoint 38°F
Altimeter 29.60 in.Hg
Derived measurements
Relative humidity 59%
Density altitude 35 ft.
Sea-level pressure 29.60 in.Hg
Climate data
Temperature minimum, last 24 hours 51°F
Temperature maximum, last 24 hours 65°F
Remarks
Automated weather observing station with precipitation discriminator.
METAR KDCA 170452Z 28008KT 10SM FEW050 11/03 A2960 RMK AO2 SLP022 T01110033 401830106

Settings

Location code

InnerDrive.Weather 4.0.6770.0 Release CLR 4.0.30319.42000
Copyright ©2018 Inner Drive Technology. All rights reserved. Portions Copyright ©1986-2018 David Braverman.

Find weather

Site navigation


Skip Navigation Links

Place info

Page info

PayPal - The safer, easier way to pay online!

Return home.

Copyright ©2019 Inner Drive Technology. Purveyors of fine, hand-crafted computer software. Page printed 2019-10-17T05:57:06 UTC.